Time;durP1;ratioP1;P1;durP2;ratioP2;P2;SDS_P1;SDS_P2;PMS_P1;PMS_P2;Temp;Humidity;BMP_temperature;BMP_pressure;BME280_temperature;BME280_humidity;BME280_pressure;Samples;Min_cycle;Max_cycle;Signal;HPM_P1;HPM_P2
2023/06/19 00:01:05;;;;;;;5.73;4.13;;;;;;;;;;5093082;28;20055;-66
2023/06/19 00:03:30;;;;;;;6.10;4.13;;;;;;;;;;5092606;28;20270;-66
2023/06/19 00:05:55;;;;;;;8.30;3.97;;;;;;;;;;5093256;28;20348;-66
2023/06/19 00:08:20;;;;;;;7.00;4.63;;;;;;;;;;5091506;28;20351;-66
2023/06/19 00:10:46;;;;;;;8.27;5.10;;;;;;;;;;5079824;28;20138;-66
2023/06/19 00:13:11;;;;;;;5.77;4.73;;;;;;;;;;5092634;28;20335;-67
2023/06/19 00:15:36;;;;;;;4.37;3.67;;;;;;;;;;5093602;28;20265;-66
2023/06/19 00:18:01;;;;;;;5.53;3.83;;;;;;;;;;5092791;28;20789;-66
2023/06/19 00:20:27;;;;;;;5.85;4.05;;;;;;;;;;5093621;28;20031;-67
2023/06/19 00:22:52;;;;;;;5.57;4.40;;;;;;;;;;5091717;28;20020;-67
2023/06/19 00:25:19;;;;;;;5.82;4.45;;;;;;;;;;5093405;28;20836;-67
2023/06/19 00:27:44;;;;;;;6.38;4.10;;;;;;;;;;5093024;28;20486;-66
2023/06/19 00:30:09;;;;;;;5.68;4.07;;;;;;;;;;5093291;28;20032;-67
2023/06/19 00:32:46;;;;;;;6.53;4.07;;;;;;;;;;5092776;28;20099;-66
2023/06/19 00:35:11;;;;;;;4.90;3.65;;;;;;;;;;5093721;28;20070;-65
2023/06/19 00:37:36;;;;;;;6.60;4.00;;;;;;;;;;5092072;28;20059;-67
2023/06/19 00:40:01;;;;;;;9.10;4.20;;;;;;;;;;5093346;28;20031;-66
2023/06/19 00:42:27;;;;;;;5.13;3.70;;;;;;;;;;5092767;28;20269;-66
2023/06/19 00:44:52;;;;;;;5.13;3.77;;;;;;;;;;5088984;28;20097;-66
2023/06/19 00:47:17;;;;;;;6.13;4.33;;;;;;;;;;5093324;28;20316;-66
2023/06/19 00:49:42;;;;;;;6.35;4.30;;;;;;;;;;5092785;28;20281;-66
2023/06/19 00:52:08;;;;;;;5.60;3.80;;;;;;;;;;5087381;28;20043;-66
2023/06/19 00:54:33;;;;;;;6.38;4.22;;;;;;;;;;5092647;28;20266;-65
2023/06/19 00:56:59;;;;;;;5.27;3.70;;;;;;;;;;5092533;28;20024;-66
2023/06/19 00:59:24;;;;;;;6.03;4.03;;;;;;;;;;5092403;28;20616;-67
2023/06/19 01:01:49;;;;;;;4.13;2.58;;;;;;;;;;5093120;28;20121;-66
2023/06/19 01:04:14;;;;;;;7.22;4.43;;;;;;;;;;5092645;28;20031;-65
2023/06/19 01:06:44;;;;;;;4.53;3.17;;;;;;;;;;5093091;28;20056;-65
2023/06/19 01:09:11;;;;;;;9.13;3.75;;;;;;;;;;5092386;28;20111;-65
2023/06/19 01:11:43;;;;;;;5.40;3.90;;;;;;;;;;5092775;28;20061;-65
2023/06/19 01:14:09;;;;;;;8.10;4.28;;;;;;;;;;5092699;28;20139;-65
2023/06/19 01:16:35;;;;;;;5.60;3.50;;;;;;;;;;5092530;28;20522;-65
2023/06/19 01:19:00;;;;;;;4.75;3.53;;;;;;;;;;5092549;28;20123;-65
2023/06/19 01:21:26;;;;;;;7.25;3.95;;;;;;;;;;5092051;28;20378;-67
2023/06/19 01:23:54;;;;;;;5.20;3.55;;;;;;;;;;5092844;28;20020;-67
2023/06/19 01:26:19;;;;;;;6.30;3.92;;;;;;;;;;5091672;28;20030;-66
2023/06/19 01:28:45;;;;;;;4.72;3.50;;;;;;;;;;5092511;28;20095;-66
2023/06/19 01:31:31;;;;;;;6.57;4.45;;;;;;;;;;5092700;28;20051;-66
2023/06/19 01:33:57;;;;;;;5.65;4.07;;;;;;;;;;5060464;28;20464;-66
2023/06/19 01:36:23;;;;;;;7.60;3.90;;;;;;;;;;5091009;28;20020;-66
2023/06/19 01:38:49;;;;;;;6.00;4.25;;;;;;;;;;5091665;28;20036;-65
2023/06/19 01:41:15;;;;;;;6.38;4.13;;;;;;;;;;5092366;28;20020;-65
2023/06/19 01:43:40;;;;;;;5.93;3.90;;;;;;;;;;5092349;28;20031;-65
2023/06/19 01:46:05;;;;;;;10.25;3.95;;;;;;;;;;5091637;28;20512;-65
2023/06/19 01:48:31;;;;;;;7.03;4.00;;;;;;;;;;5092186;28;20031;-65
2023/06/19 01:50:56;;;;;;;4.43;3.30;;;;;;;;;;5091593;28;20028;-66
2023/06/19 01:53:22;;;;;;;6.60;3.97;;;;;;;;;;5091667;28;20395;-65
2023/06/19 01:55:47;;;;;;;5.53;3.70;;;;;;;;;;5091844;28;20100;-65
2023/06/19 01:58:12;;;;;;;5.95;3.92;;;;;;;;;;5091556;28;20031;-65
2023/06/19 02:00:37;;;;;;;5.15;3.70;;;;;;;;;;5078445;28;20020;-63
2023/06/19 02:03:03;;;;;;;5.75;3.05;;;;;;;;;;5091524;28;20074;-66
2023/06/19 02:05:29;;;;;;;4.90;3.45;;;;;;;;;;5091009;28;20467;-66
2023/06/19 02:07:54;;;;;;;5.85;3.38;;;;;;;;;;5091184;28;20062;-65
2023/06/19 02:10:19;;;;;;;6.35;3.42;;;;;;;;;;5091671;28;20028;-65
2023/06/19 02:12:45;;;;;;;4.87;3.50;;;;;;;;;;5091640;28;20036;-64
2023/06/19 02:15:10;;;;;;;5.03;3.37;;;;;;;;;;5076555;28;20312;-65
2023/06/19 02:17:35;;;;;;;8.70;3.78;;;;;;;;;;5088782;28;20318;-65
2023/06/19 02:20:01;;;;;;;4.15;3.15;;;;;;;;;;5091359;28;20036;-65
2023/06/19 02:22:26;;;;;;;5.53;3.80;;;;;;;;;;5087697;28;20048;-66
2023/06/19 02:24:51;;;;;;;6.27;3.73;;;;;;;;;;5088576;28;20711;-66
2023/06/19 02:27:16;;;;;;;5.72;3.50;;;;;;;;;;5091036;28;20702;-66
2023/06/19 02:29:42;;;;;;;5.97;3.50;;;;;;;;;;5091423;28;20026;-65
2023/06/19 02:32:07;;;;;;;6.20;3.58;;;;;;;;;;5077804;28;20351;-64
2023/06/19 02:34:32;;;;;;;6.82;3.55;;;;;;;;;;5090669;28;20012;-66
2023/06/19 02:36:57;;;;;;;7.22;3.42;;;;;;;;;;5090904;28;20027;-65
2023/06/19 02:39:23;;;;;;;5.72;3.55;;;;;;;;;;5089324;28;20027;-66
2023/06/19 02:41:48;;;;;;;4.45;2.78;;;;;;;;;;5086697;28;20625;-66
2023/06/19 02:44:13;;;;;;;4.90;2.87;;;;;;;;;;5090859;28;20438;-66
2023/06/19 02:46:39;;;;;;;5.43;3.17;;;;;;;;;;5079381;28;20271;-66
2023/06/19 02:49:04;;;;;;;6.90;3.38;;;;;;;;;;5086545;28;20016;-66
2023/06/19 02:51:29;;;;;;;6.22;3.17;;;;;;;;;;5090478;28;20159;-66
2023/06/19 02:53:55;;;;;;;5.43;3.20;;;;;;;;;;5090610;28;20059;-66
2023/06/19 02:56:20;;;;;;;4.82;3.30;;;;;;;;;;5090393;28;20278;-66
2023/06/19 02:58:45;;;;;;;3.75;2.60;;;;;;;;;;5090396;28;20066;-66
2023/06/19 03:01:10;;;;;;;5.37;3.17;;;;;;;;;;5090392;28;20425;-67
2023/06/19 03:03:37;;;;;;;5.72;3.17;;;;;;;;;;5090507;28;20294;-67
2023/06/19 03:06:06;;;;;;;4.38;2.92;;;;;;;;;;5090481;28;20082;-67
2023/06/19 03:08:33;;;;;;;6.07;3.30;;;;;;;;;;5090204;28;20027;-67
2023/06/19 03:10:58;;;;;;;8.57;3.80;;;;;;;;;;5090916;28;20032;-67
2023/06/19 03:13:23;;;;;;;5.70;3.97;;;;;;;;;;5091168;28;20462;-67
2023/06/19 03:15:48;;;;;;;4.63;3.43;;;;;;;;;;5093638;28;20027;-67
2023/06/19 03:18:14;;;;;;;4.47;3.47;;;;;;;;;;5094570;28;20297;-67
2023/06/19 03:20:39;;;;;;;4.53;2.88;;;;;;;;;;5093180;28;20820;-66
2023/06/19 03:23:04;;;;;;;5.65;3.45;;;;;;;;;;5081571;28;20029;-66
2023/06/19 03:25:34;;;;;;;5.45;3.78;;;;;;;;;;5093074;28;20474;-66
2023/06/19 03:27:59;;;;;;;6.88;4.25;;;;;;;;;;5093718;28;20036;-66
2023/06/19 03:30:25;;;;;;;5.47;4.05;;;;;;;;;;5093370;28;20112;-66
2023/06/19 03:32:50;;;;;;;7.13;4.17;;;;;;;;;;5084812;28;20122;-65
2023/06/19 03:35:15;;;;;;;10.73;5.20;;;;;;;;;;5092381;28;20308;-65
2023/06/19 03:37:40;;;;;;;5.30;4.13;;;;;;;;;;5093029;28;20305;-65
2023/06/19 03:40:07;;;;;;;7.00;4.30;;;;;;;;;;5092780;28;20816;-66
2023/06/19 03:42:34;;;;;;;7.05;5.38;;;;;;;;;;5093535;28;20021;-64
2023/06/19 03:44:59;;;;;;;7.47;5.10;;;;;;;;;;5093889;28;20044;-65
2023/06/19 03:47:24;;;;;;;6.67;4.77;;;;;;;;;;5093739;28;20060;-65
2023/06/19 03:49:49;;;;;;;7.80;4.40;;;;;;;;;;5093533;28;20277;-65
2023/06/19 03:52:14;;;;;;;11.67;4.57;;;;;;;;;;5093285;28;20327;-65
2023/06/19 03:54:40;;;;;;;5.97;4.57;;;;;;;;;;5093625;28;20384;-64
2023/06/19 03:57:06;;;;;;;5.70;4.43;;;;;;;;;;5092341;28;20273;-65
2023/06/19 03:59:31;;;;;;;13.88;4.63;;;;;;;;;;5093846;28;20671;-65
2023/06/19 04:01:56;;;;;;;8.10;5.03;;;;;;;;;;5093954;28;20028;-65
2023/06/19 04:04:22;;;;;;;6.97;4.60;;;;;;;;;;5093516;28;20342;-65
2023/06/19 04:06:47;;;;;;;6.00;4.65;;;;;;;;;;5093500;28;20028;-65
2023/06/19 04:09:13;;;;;;;6.33;4.13;;;;;;;;;;5093621;28;20332;-65
2023/06/19 04:11:38;;;;;;;8.35;3.65;;;;;;;;;;5093685;28;20471;-65
2023/06/19 04:14:03;;;;;;;5.78;4.80;;;;;;;;;;5090731;28;20028;-65
2023/06/19 04:16:29;;;;;;;7.50;4.85;;;;;;;;;;5093528;28;20024;-65
2023/06/19 04:18:54;;;;;;;5.53;4.23;;;;;;;;;;5088815;28;20027;-66
2023/06/19 04:21:19;;;;;;;5.17;4.27;;;;;;;;;;5092561;28;20313;-66
2023/06/19 04:23:44;;;;;;;7.95;4.65;;;;;;;;;;5091878;28;20279;-66
2023/06/19 04:26:09;;;;;;;5.40;4.33;;;;;;;;;;5093148;28;20497;-67
2023/06/19 04:28:35;;;;;;;8.33;4.37;;;;;;;;;;5093638;28;20274;-66
2023/06/19 04:31:03;;;;;;;11.43;5.20;;;;;;;;;;5092170;28;20282;-66
2023/06/19 04:33:29;;;;;;;6.47;4.30;;;;;;;;;;5075340;28;20277;-67
2023/06/19 04:35:54;;;;;;;6.72;5.22;;;;;;;;;;5093390;28;20020;-68
2023/06/19 04:38:23;;;;;;;6.65;5.07;;;;;;;;;;5092255;28;20467;-67
2023/06/19 04:40:48;;;;;;;7.15;4.35;;;;;;;;;;5092562;28;20069;-67
2023/06/19 04:43:14;;;;;;;6.22;4.47;;;;;;;;;;5093068;28;20024;-66
2023/06/19 04:45:39;;;;;;;7.07;4.65;;;;;;;;;;5092715;28;20047;-67
2023/06/19 04:48:04;;;;;;;8.53;5.13;;;;;;;;;;5092963;28;20020;-67
2023/06/19 04:50:29;;;;;;;5.57;4.40;;;;;;;;;;5093304;28;20728;-73
2023/06/19 04:52:55;;;;;;;8.05;4.80;;;;;;;;;;5076564;28;20360;-66
2023/06/19 04:55:20;;;;;;;7.63;5.00;;;;;;;;;;5093319;28;20035;-66
2023/06/19 04:57:45;;;;;;;9.93;4.72;;;;;;;;;;5086796;28;20788;-66
2023/06/19 05:00:11;;;;;;;5.70;4.30;;;;;;;;;;5084725;28;20032;-65
2023/06/19 05:02:36;;;;;;;9.00;5.15;;;;;;;;;;5092028;28;20281;-65
2023/06/19 05:05:03;;;;;;;7.03;4.77;;;;;;;;;;5090588;28;20039;-65
2023/06/19 05:07:31;;;;;;;8.18;6.03;;;;;;;;;;5091914;28;20270;-67
2023/06/19 05:09:56;;;;;;;7.07;4.63;;;;;;;;;;5091614;28;20016;-65
2023/06/19 05:12:22;;;;;;;5.43;4.90;;;;;;;;;;5092475;28;20046;-66
2023/06/19 05:14:47;;;;;;;9.88;5.13;;;;;;;;;;5088923;28;20017;-66
2023/06/19 05:17:12;;;;;;;13.30;5.57;;;;;;;;;;5088715;28;20024;-66
2023/06/19 05:19:37;;;;;;;8.60;5.30;;;;;;;;;;5092553;28;20290;-65
2023/06/19 05:22:03;;;;;;;7.10;5.63;;;;;;;;;;5088466;28;20324;-66
2023/06/19 05:24:28;;;;;;;7.57;5.55;;;;;;;;;;5076160;28;20330;-65
2023/06/19 05:26:53;;;;;;;7.83;5.30;;;;;;;;;;5091536;28;20119;-66
2023/06/19 05:29:18;;;;;;;8.13;5.65;;;;;;;;;;5085528;28;20274;-66
2023/06/19 05:31:44;;;;;;;10.53;6.17;;;;;;;;;;5092456;28;20382;-65
2023/06/19 05:34:09;;;;;;;8.43;5.47;;;;;;;;;;5092587;28;20274;-67
2023/06/19 05:36:34;;;;;;;7.63;6.27;;;;;;;;;;5091878;28;20324;-66
2023/06/19 05:38:59;;;;;;;13.65;7.70;;;;;;;;;;5091300;28;20302;-67
2023/06/19 05:41:25;;;;;;;11.77;6.47;;;;;;;;;;5092165;28;20028;-66
2023/06/19 05:43:50;;;;;;;9.15;6.47;;;;;;;;;;5080874;28;20290;-67
2023/06/19 05:46:15;;;;;;;7.90;5.95;;;;;;;;;;5085533;28;20020;-66
2023/06/19 05:48:40;;;;;;;10.10;6.47;;;;;;;;;;5082235;28;20543;-66
2023/06/19 05:51:06;;;;;;;10.90;6.22;;;;;;;;;;5090866;28;20272;-68
2023/06/19 05:53:31;;;;;;;8.30;6.47;;;;;;;;;;5091919;28;20520;-67
2023/06/19 05:55:58;;;;;;;9.82;7.18;;;;;;;;;;5092061;28;20809;-67
2023/06/19 05:58:25;;;;;;;12.40;6.20;;;;;;;;;;5091717;28;20458;-65
2023/06/19 06:00:50;;;;;;;9.70;6.63;;;;;;;;;;5089261;28;20028;-68
2023/06/19 06:03:15;;;;;;;10.02;6.35;;;;;;;;;;5092114;28;20432;-68
2023/06/19 06:05:43;;;;;;;10.68;6.72;;;;;;;;;;5090974;28;20039;-68
2023/06/19 06:08:08;;;;;;;9.43;6.63;;;;;;;;;;5091406;28;20032;-67
2023/06/19 06:10:33;;;;;;;11.33;6.40;;;;;;;;;;5091545;28;20031;-68
2023/06/19 06:12:58;;;;;;;8.95;6.43;;;;;;;;;;5091209;28;20281;-67
2023/06/19 06:15:24;;;;;;;9.65;6.13;;;;;;;;;;5091391;28;20020;-67
2023/06/19 06:17:49;;;;;;;8.63;5.00;;;;;;;;;;5091621;28;20208;-68
2023/06/19 06:20:14;;;;;;;7.10;5.03;;;;;;;;;;5090501;28;20277;-67
2023/06/19 06:22:40;;;;;;;6.07;5.47;;;;;;;;;;5079598;28;20263;-68
2023/06/19 06:25:05;;;;;;;10.63;5.93;;;;;;;;;;5091017;28;20282;-68
2023/06/19 06:27:30;;;;;;;6.63;4.57;;;;;;;;;;5091203;28;20494;-67
2023/06/19 06:29:56;;;;;;;7.13;4.57;;;;;;;;;;5091569;28;20093;-67
2023/06/19 06:32:21;;;;;;;6.13;4.07;;;;;;;;;;5090940;28;20266;-68
2023/06/19 06:34:47;;;;;;;6.23;4.30;;;;;;;;;;5089327;28;20308;-68
2023/06/19 06:37:12;;;;;;;10.23;4.53;;;;;;;;;;5090904;28;20306;-68
2023/06/19 06:39:38;;;;;;;5.40;3.38;;;;;;;;;;5091182;28;20431;-67
2023/06/19 06:42:03;;;;;;;6.50;3.17;;;;;;;;;;5089661;28;20034;-67
2023/06/19 06:44:29;;;;;;;6.10;3.42;;;;;;;;;;5090276;28;20103;-65
2023/06/19 06:46:55;;;;;;;5.13;3.27;;;;;;;;;;5090512;28;20019;-67
2023/06/19 06:49:21;;;;;;;5.30;3.70;;;;;;;;;;5091938;28;20270;-67
2023/06/19 06:51:46;;;;;;;5.57;3.35;;;;;;;;;;5084995;28;20095;-67
2023/06/19 06:54:12;;;;;;;5.22;3.60;;;;;;;;;;5094232;28;20378;-67
2023/06/19 06:56:37;;;;;;;4.60;3.13;;;;;;;;;;5094600;28;20394;-67
2023/06/19 06:59:02;;;;;;;8.80;3.67;;;;;;;;;;5093466;28;20289;-67
2023/06/19 07:01:27;;;;;;;7.03;3.90;;;;;;;;;;5094799;28;20323;-67
2023/06/19 07:03:53;;;;;;;5.93;3.65;;;;;;;;;;5094750;28;20290;-68
2023/06/19 07:06:19;;;;;;;7.32;4.20;;;;;;;;;;5094394;28;20028;-67
2023/06/19 07:08:47;;;;;;;7.57;4.72;;;;;;;;;;5094602;28;20093;-67
2023/06/19 07:11:12;;;;;;;6.65;4.68;;;;;;;;;;5094890;28;20497;-67
2023/06/19 07:13:37;;;;;;;9.43;5.00;;;;;;;;;;5094760;28;20016;-66
2023/06/19 07:16:04;;;;;;;9.37;4.87;;;;;;;;;;5094160;28;20609;-66
2023/06/19 07:18:30;;;;;;;10.35;5.07;;;;;;;;;;5094529;28;20297;-65
2023/06/19 07:20:55;;;;;;;10.30;4.53;;;;;;;;;;5094876;28;20374;-65
2023/06/19 07:23:20;;;;;;;6.37;4.23;;;;;;;;;;5079959;28;20029;-67
2023/06/19 07:25:46;;;;;;;5.75;4.70;;;;;;;;;;5093785;28;20310;-68
2023/06/19 07:28:11;;;;;;;6.55;4.60;;;;;;;;;;5090269;28;20031;-67
2023/06/19 07:30:36;;;;;;;7.57;4.20;;;;;;;;;;5093083;28;20085;-68
2023/06/19 07:33:02;;;;;;;6.70;5.47;;;;;;;;;;5093182;28;20365;-68
2023/06/19 07:35:27;;;;;;;5.68;4.32;;;;;;;;;;5090181;28;20024;-68
2023/06/19 07:37:52;;;;;;;7.03;4.63;;;;;;;;;;5093680;28;20115;-67
2023/06/19 07:40:18;;;;;;;8.50;5.00;;;;;;;;;;5093409;28;20278;-67
2023/06/19 07:42:43;;;;;;;11.87;4.57;;;;;;;;;;5093536;28;20285;-68
2023/06/19 07:45:08;;;;;;;5.93;4.40;;;;;;;;;;5093584;28;20822;-68
2023/06/19 07:47:34;;;;;;;8.32;5.05;;;;;;;;;;5093749;28;20422;-68
2023/06/19 07:49:59;;;;;;;6.78;5.85;;;;;;;;;;5093360;28;20062;-68
2023/06/19 07:52:24;;;;;;;6.27;5.47;;;;;;;;;;5094004;28;20085;-68
2023/06/19 07:54:54;;;;;;;7.13;5.20;;;;;;;;;;5094005;28;20609;-67
2023/06/19 07:57:19;;;;;;;9.43;5.68;;;;;;;;;;5093055;28;20365;-67
2023/06/19 07:59:45;;;;;;;7.38;5.50;;;;;;;;;;5093129;28;20225;-67
2023/06/19 08:02:10;;;;;;;7.35;5.88;;;;;;;;;;5093281;28;20024;-67
2023/06/19 08:04:36;;;;;;;9.00;4.40;;;;;;;;;;5093577;28;20467;-69
2023/06/19 08:07:01;;;;;;;7.43;4.43;;;;;;;;;;5093790;28;20034;-69
2023/06/19 08:09:26;;;;;;;10.45;5.75;;;;;;;;;;5093885;28;20827;-67
2023/06/19 08:11:52;;;;;;;7.55;5.07;;;;;;;;;;5092519;28;20039;-67
2023/06/19 08:14:17;;;;;;;7.03;5.00;;;;;;;;;;5093087;28;20024;-69
2023/06/19 08:16:42;;;;;;;5.87;4.40;;;;;;;;;;5093125;28;20020;-68
2023/06/19 08:19:07;;;;;;;8.07;5.43;;;;;;;;;;5093207;28;20325;-69
2023/06/19 08:21:32;;;;;;;17.67;6.17;;;;;;;;;;5092675;28;20282;-69
2023/06/19 08:23:58;;;;;;;6.40;5.07;;;;;;;;;;5079733;28;20316;-68
2023/06/19 08:26:23;;;;;;;8.63;5.45;;;;;;;;;;5091897;28;20853;-68
2023/06/19 08:28:51;;;;;;;8.20;5.47;;;;;;;;;;5092782;28;20038;-69
2023/06/19 08:31:17;;;;;;;6.15;4.57;;;;;;;;;;5092415;28;20304;-68
2023/06/19 08:33:42;;;;;;;19.83;6.40;;;;;;;;;;5074462;28;20048;-68
2023/06/19 08:36:07;;;;;;;7.87;5.53;;;;;;;;;;5067794;28;20282;-68
2023/06/19 08:38:32;;;;;;;9.38;6.50;;;;;;;;;;5088794;28;20307;-67
2023/06/19 08:40:58;;;;;;;9.95;5.90;;;;;;;;;;5083782;28;20024;-67
2023/06/19 08:43:23;;;;;;;8.40;5.60;;;;;;;;;;5093853;28;20028;-68
2023/06/19 08:46:03;;;;;;;7.45;5.75;;;;;;;;;;5092676;28;20551;-67
2023/06/19 08:48:28;;;;;;;7.75;5.43;;;;;;;;;;5092183;28;20128;-67
2023/06/19 08:50:55;;;;;;;11.17;5.33;;;;;;;;;;5092782;28;20111;-67
2023/06/19 08:53:20;;;;;;;8.85;5.55;;;;;;;;;;5092947;28;20331;-66
2023/06/19 08:55:45;;;;;;;6.40;4.83;;;;;;;;;;5092592;28;20494;-67
2023/06/19 08:58:11;;;;;;;9.80;5.03;;;;;;;;;;5092803;28;20716;-66
2023/06/19 09:00:37;;;;;;;6.75;4.70;;;;;;;;;;5092722;28;20285;-67
2023/06/19 09:03:03;;;;;;;6.97;5.15;;;;;;;;;;5092603;28;20049;-67
2023/06/19 09:05:28;;;;;;;6.22;4.63;;;;;;;;;;5092286;28;20016;-67
2023/06/19 09:08:00;;;;;;;11.07;5.75;;;;;;;;;;5092355;28;20020;-67
2023/06/19 09:10:25;;;;;;;6.50;4.63;;;;;;;;;;5079577;28;20016;-68
2023/06/19 09:13:01;;;;;;;12.48;5.88;;;;;;;;;;5081205;28;20112;-68
2023/06/19 09:15:27;;;;;;;8.75;5.88;;;;;;;;;;5078466;28;20031;-67
2023/06/19 09:18:04;;;;;;;8.93;6.20;;;;;;;;;;5081247;28;20421;-67
2023/06/19 09:20:30;;;;;;;16.13;5.50;;;;;;;;;;5074336;28;20033;-67
2023/06/19 09:22:56;;;;;;;13.98;5.20;;;;;;;;;;5075870;28;20016;-67
2023/06/19 09:25:23;;;;;;;7.57;5.20;;;;;;;;;;5072761;28;20021;-67
2023/06/19 09:27:48;;;;;;;8.38;4.82;;;;;;;;;;5082618;28;20031;-68
2023/06/19 09:30:17;;;;;;;6.55;4.53;;;;;;;;;;5078566;28;20016;-68
2023/06/19 09:32:42;;;;;;;5.22;4.15;;;;;;;;;;5091671;28;20032;-67
2023/06/19 09:35:07;;;;;;;5.73;4.60;;;;;;;;;;5091870;28;20038;-65
2023/06/19 09:37:33;;;;;;;11.68;5.63;;;;;;;;;;5091551;28;20259;-66
2023/06/19 09:40:10;;;;;;;9.02;5.10;;;;;;;;;;5092546;28;20020;-66
2023/06/19 09:42:36;;;;;;;8.63;4.72;;;;;;;;;;5092082;28;20107;-67
2023/06/19 09:45:06;;;;;;;5.72;4.78;;;;;;;;;;5091629;28;20052;-67
2023/06/19 09:47:38;;;;;;;5.57;4.70;;;;;;;;;;5092053;28;20106;-68
2023/06/19 09:50:04;;;;;;;7.78;5.20;;;;;;;;;;5091506;28;20064;-68
2023/06/19 09:52:33;;;;;;;8.05;5.82;;;;;;;;;;5091435;28;20028;-68
2023/06/19 09:55:02;;;;;;;7.32;5.07;;;;;;;;;;5091499;28;20459;-69
2023/06/19 09:57:28;;;;;;;9.38;5.18;;;;;;;;;;5091071;28;20020;-68
2023/06/19 09:59:56;;;;;;;12.15;4.82;;;;;;;;;;5091735;28;20051;-68
2023/06/19 10:02:22;;;;;;;8.43;5.00;;;;;;;;;;5088573;28;20046;-68
2023/06/19 10:04:51;;;;;;;8.63;4.72;;;;;;;;;;5091571;28;20407;-70
2023/06/19 10:07:20;;;;;;;7.20;4.60;;;;;;;;;;5091164;28;20474;-69
2023/06/19 10:10:15;;;;;;;6.97;5.05;;;;;;;;;;5090925;28;20023;-68
2023/06/19 10:12:41;;;;;;;5.72;4.50;;;;;;;;;;5077612;28;20100;-68
2023/06/19 10:15:17;;;;;;;6.43;4.53;;;;;;;;;;5091467;28;20032;-68
2023/06/19 10:17:47;;;;;;;8.77;4.38;;;;;;;;;;5091202;28;20012;-68
2023/06/19 10:20:35;;;;;;;7.45;5.05;;;;;;;;;;5088780;28;20023;-69
2023/06/19 10:23:07;;;;;;;6.70;5.10;;;;;;;;;;5073645;28;20034;-68
2023/06/19 10:25:37;;;;;;;12.73;5.20;;;;;;;;;;5089270;28;20043;-69
2023/06/19 10:28:05;;;;;;;10.00;5.45;;;;;;;;;;5092115;28;20024;-68
2023/06/19 10:30:31;;;;;;;9.63;5.90;;;;;;;;;;5087529;28;20420;-68
2023/06/19 10:32:57;;;;;;;6.32;4.85;;;;;;;;;;5092046;28;20028;-68
2023/06/19 10:35:24;;;;;;;7.78;4.90;;;;;;;;;;5091453;28;20031;-68
2023/06/19 10:37:50;;;;;;;6.65;5.20;;;;;;;;;;5090985;28;20031;-68
2023/06/19 10:40:15;;;;;;;10.88;5.38;;;;;;;;;;5091470;28;20065;-68
2023/06/19 10:42:40;;;;;;;6.20;4.47;;;;;;;;;;5091206;28;20107;-68
2023/06/19 10:45:08;;;;;;;9.10;5.13;;;;;;;;;;5090836;28;20550;-68
2023/06/19 10:47:33;;;;;;;7.95;4.88;;;;;;;;;;5090679;28;20076;-68
2023/06/19 10:49:59;;;;;;;7.55;5.35;;;;;;;;;;5091365;28;20166;-68
2023/06/19 10:52:24;;;;;;;6.47;5.00;;;;;;;;;;5091463;28;20028;-68
2023/06/19 10:54:54;;;;;;;8.52;5.13;;;;;;;;;;5091536;28;20825;-68
2023/06/19 10:57:25;;;;;;;6.68;4.55;;;;;;;;;;5091028;28;20486;-68
2023/06/19 10:59:51;;;;;;;6.53;5.00;;;;;;;;;;5091023;28;20024;-66
2023/06/19 11:02:18;;;;;;;8.73;5.20;;;;;;;;;;5091025;28;20074;-67
2023/06/19 11:04:43;;;;;;;7.82;5.68;;;;;;;;;;5090760;28;20032;-68
2023/06/19 11:07:09;;;;;;;10.02;5.57;;;;;;;;;;5089840;28;20572;-68
2023/06/19 11:09:34;;;;;;;7.90;5.25;;;;;;;;;;5090813;28;20051;-68
2023/06/19 11:12:00;;;;;;;8.43;5.47;;;;;;;;;;5090103;28;20036;-67
2023/06/19 11:14:28;;;;;;;10.50;5.80;;;;;;;;;;5090560;28;20270;-68
2023/06/19 11:16:54;;;;;;;7.97;5.00;;;;;;;;;;5090484;28;20020;-68
2023/06/19 11:19:20;;;;;;;7.43;4.93;;;;;;;;;;5090623;28;20492;-68
2023/06/19 11:21:52;;;;;;;10.40;5.20;;;;;;;;;;5088800;28;20362;-67
2023/06/19 11:24:17;;;;;;;9.63;6.20;;;;;;;;;;5085099;28;20029;-68
2023/06/19 11:26:51;;;;;;;8.35;5.97;;;;;;;;;;5089600;28;20032;-68
2023/06/19 11:29:18;;;;;;;10.70;6.55;;;;;;;;;;5087831;28;20039;-64
2023/06/19 11:31:43;;;;;;;8.95;5.65;;;;;;;;;;5090197;28;20060;-68
2023/06/19 11:34:09;;;;;;;7.13;5.60;;;;;;;;;;5090392;28;20066;-67
2023/06/19 11:36:36;;;;;;;13.93;6.23;;;;;;;;;;5092957;28;20320;-68
2023/06/19 11:39:04;;;;;;;8.48;6.05;;;;;;;;;;5093679;28;20282;-69
2023/06/19 11:41:30;;;;;;;9.82;6.47;;;;;;;;;;5093417;28;20061;-69
2023/06/19 11:44:05;;;;;;;6.85;5.28;;;;;;;;;;5093609;28;20024;-68
2023/06/19 11:46:31;;;;;;;7.22;5.45;;;;;;;;;;5080672;28;20031;-68
2023/06/19 11:49:06;;;;;;;9.68;5.18;;;;;;;;;;5093536;28;20039;-70
2023/06/19 11:51:32;;;;;;;10.45;6.18;;;;;;;;;;5093583;28;20016;-69
2023/06/19 11:53:57;;;;;;;6.67;5.53;;;;;;;;;;5093857;28;20517;-66
2023/06/19 11:56:22;;;;;;;7.80;5.10;;;;;;;;;;5093951;28;20345;-72
2023/06/19 11:58:48;;;;;;;10.02;5.82;;;;;;;;;;5093754;28;20105;-68
2023/06/19 12:01:13;;;;;;;9.70;6.05;;;;;;;;;;5094351;28;20036;-68
2023/06/19 12:03:38;;;;;;;15.25;5.95;;;;;;;;;;5094022;28;20028;-67
2023/06/19 12:06:04;;;;;;;8.40;5.07;;;;;;;;;;5093853;28;20031;-71
2023/06/19 12:08:29;;;;;;;11.75;6.57;;;;;;;;;;5093228;28;20032;-68
2023/06/19 12:10:54;;;;;;;6.83;5.27;;;;;;;;;;5093914;28;20559;-68
2023/06/19 12:13:19;;;;;;;10.50;5.88;;;;;;;;;;5093419;28;20024;-67
2023/06/19 12:15:45;;;;;;;6.80;5.73;;;;;;;;;;5093122;28;20024;-67
2023/06/19 12:18:12;;;;;;;8.40;5.87;;;;;;;;;;5092800;28;20036;-67
2023/06/19 12:20:37;;;;;;;8.13;5.80;;;;;;;;;;5092872;28;20054;-65
2023/06/19 12:23:02;;;;;;;9.35;5.53;;;;;;;;;;5090278;28;20550;-67
2023/06/19 12:25:28;;;;;;;8.17;5.83;;;;;;;;;;5093179;28;20032;-67
2023/06/19 12:27:53;;;;;;;7.88;5.50;;;;;;;;;;5092674;28;20332;-64
2023/06/19 12:30:18;;;;;;;7.00;6.00;;;;;;;;;;5092662;28;20030;-65
2023/06/19 12:32:43;;;;;;;9.93;6.10;;;;;;;;;;5093364;28;20024;-66
2023/06/19 12:35:09;;;;;;;10.25;5.97;;;;;;;;;;5092687;28;20289;-65
2023/06/19 12:37:34;;;;;;;8.82;4.82;;;;;;;;;;5092789;28;20459;-65
2023/06/19 12:39:59;;;;;;;9.57;5.90;;;;;;;;;;5092597;28;20036;-65
2023/06/19 12:42:24;;;;;;;13.47;6.33;;;;;;;;;;5092560;28;20497;-65
2023/06/19 12:44:50;;;;;;;7.43;4.60;;;;;;;;;;5092197;28;20019;-65
2023/06/19 12:47:17;;;;;;;9.80;5.63;;;;;;;;;;5091197;28;20023;-66
2023/06/19 12:49:42;;;;;;;9.93;6.07;;;;;;;;;;5091694;28;20254;-63
2023/06/19 12:52:08;;;;;;;12.73;5.80;;;;;;;;;;5092077;28;20326;-65
2023/06/19 12:54:33;;;;;;;9.40;5.77;;;;;;;;;;5085785;28;20108;-66
2023/06/19 12:56:58;;;;;;;7.10;5.60;;;;;;;;;;5082952;28;20270;-66
2023/06/19 12:59:24;;;;;;;11.60;5.90;;;;;;;;;;5092368;28;20034;-65
2023/06/19 13:01:49;;;;;;;7.25;4.90;;;;;;;;;;5092371;28;20115;-65
2023/06/19 13:04:15;;;;;;;7.55;5.05;;;;;;;;;;5092310;28;20532;-66
2023/06/19 13:06:40;;;;;;;5.70;4.47;;;;;;;;;;5092372;28;20396;-66
2023/06/19 13:09:06;;;;;;;6.07;4.70;;;;;;;;;;5092597;28;20035;-66
2023/06/19 13:11:31;;;;;;;6.95;4.70;;;;;;;;;;5091853;28;20270;-66
2023/06/19 13:13:56;;;;;;;8.95;5.18;;;;;;;;;;5092461;28;20019;-65
2023/06/19 13:16:24;;;;;;;8.87;5.07;;;;;;;;;;5092676;28;20020;-66
2023/06/19 13:18:49;;;;;;;7.97;5.32;;;;;;;;;;5092357;28;20374;-65
2023/06/19 13:21:15;;;;;;;11.50;5.13;;;;;;;;;;5084864;28;20039;-64
2023/06/19 13:23:40;;;;;;;12.00;4.88;;;;;;;;;;5078973;28;20312;-64
2023/06/19 13:26:06;;;;;;;7.43;5.20;;;;;;;;;;5092817;28;20416;-66
2023/06/19 13:28:31;;;;;;;6.95;4.63;;;;;;;;;;5091750;28;20266;-66
2023/06/19 13:30:56;;;;;;;6.18;4.75;;;;;;;;;;5092542;28;20024;-64
2023/06/19 13:33:21;;;;;;;7.40;4.17;;;;;;;;;;5092629;28;20076;-65
2023/06/19 13:35:47;;;;;;;6.37;5.37;;;;;;;;;;5092311;28;20044;-65
2023/06/19 13:38:12;;;;;;;9.35;5.18;;;;;;;;;;5092058;28;20286;-66
2023/06/19 13:40:37;;;;;;;8.07;5.43;;;;;;;;;;5092655;28;20509;-65
2023/06/19 13:43:03;;;;;;;5.77;4.53;;;;;;;;;;5092028;28;20103;-65
2023/06/19 13:45:29;;;;;;;8.30;5.03;;;;;;;;;;5091683;28;20121;-66
2023/06/19 13:47:54;;;;;;;11.48;5.78;;;;;;;;;;5091182;28;20470;-65
2023/06/19 13:50:19;;;;;;;11.00;4.80;;;;;;;;;;5091330;28;20039;-66
2023/06/19 13:52:45;;;;;;;12.57;4.75;;;;;;;;;;5089810;28;21143;-65
2023/06/19 13:55:11;;;;;;;5.30;4.15;;;;;;;;;;5092177;28;20055;-65
2023/06/19 13:57:37;;;;;;;8.48;4.93;;;;;;;;;;5091650;28;20470;-65
2023/06/19 14:00:03;;;;;;;9.52;5.68;;;;;;;;;;5090957;28;20031;-66
2023/06/19 14:02:28;;;;;;;8.00;5.18;;;;;;;;;;5091229;28;20020;-66
2023/06/19 14:04:53;;;;;;;6.82;5.25;;;;;;;;;;5091854;28;20432;-66
2023/06/19 14:07:21;;;;;;;10.77;5.25;;;;;;;;;;5090739;28;20020;-66
2023/06/19 14:09:48;;;;;;;7.40;5.82;;;;;;;;;;5091939;28;20028;-65
2023/06/19 14:12:13;;;;;;;7.85;5.05;;;;;;;;;;5090725;28;20491;-65
2023/06/19 14:14:38;;;;;;;7.73;5.50;;;;;;;;;;5089851;28;20031;-66
2023/06/19 14:17:03;;;;;;;7.57;5.50;;;;;;;;;;5090809;28;20467;-65
2023/06/19 14:19:29;;;;;;;9.77;4.40;;;;;;;;;;5089981;28;20027;-66
2023/06/19 14:21:54;;;;;;;5.50;4.03;;;;;;;;;;5089149;28;20032;-65
2023/06/19 14:24:19;;;;;;;8.50;4.80;;;;;;;;;;5091259;28;20282;-65
2023/06/19 14:26:44;;;;;;;8.30;5.03;;;;;;;;;;5091316;28;20032;-66
2023/06/19 14:29:10;;;;;;;6.63;4.80;;;;;;;;;;5091616;28;20316;-67
2023/06/19 14:31:35;;;;;;;8.10;5.30;;;;;;;;;;5091126;28;20483;-66
2023/06/19 14:34:00;;;;;;;9.97;4.40;;;;;;;;;;5091455;28;20437;-65